createdAt,value
2018-07-19T00:00:28.530Z,21.50
2018-07-19T00:05:31.778Z,21.20
2018-07-19T00:10:35.162Z,21.10
2018-07-19T00:15:38.414Z,21.10
2018-07-19T00:20:41.663Z,21.10
2018-07-19T00:25:44.914Z,20.90
2018-07-19T00:30:48.278Z,20.90
2018-07-19T00:35:51.928Z,21.20
2018-07-19T00:40:55.230Z,21.30
2018-07-19T00:45:58.483Z,21.40
2018-07-19T00:51:01.750Z,21.30
2018-07-19T00:56:05.182Z,21.30
2018-07-19T01:01:08.421Z,21.10
2018-07-19T01:06:11.832Z,20.90
2018-07-19T01:11:15.070Z,21.20
2018-07-19T01:16:18.453Z,21.30
2018-07-19T01:21:21.702Z,21.20
2018-07-19T01:26:24.982Z,21.20
2018-07-19T01:31:28.228Z,21.10
2018-07-19T01:36:31.490Z,21.20
2018-07-19T01:42:12.236Z,21.20
2018-07-19T01:47:15.486Z,21.00
2018-07-19T01:52:18.779Z,20.90
2018-07-19T01:57:22.222Z,20.90
2018-07-19T02:02:25.448Z,21.10
2018-07-19T02:07:28.741Z,20.80
2018-07-19T02:12:31.982Z,20.80
2018-07-19T02:17:35.221Z,20.50
2018-07-19T02:22:38.517Z,20.30
2018-07-19T02:27:41.819Z,20.40
2018-07-19T02:32:45.078Z,20.60
2018-07-19T02:37:48.315Z,20.60
2018-07-19T02:42:51.587Z,20.60
2018-07-19T02:47:54.847Z,20.50
2018-07-19T02:52:58.106Z,20.30
2018-07-19T02:58:01.486Z,20.30
2018-07-19T03:03:04.754Z,20.30
2018-07-19T03:08:08.206Z,19.90
2018-07-19T03:13:11.437Z,19.70
2018-07-19T03:18:14.750Z,19.10
2018-07-19T03:23:18.080Z,19.20
2018-07-19T03:28:21.389Z,19.90
2018-07-19T03:33:24.672Z,19.90
2018-07-19T03:38:27.915Z,19.90
2018-07-19T03:43:31.146Z,19.80
2018-07-19T03:48:34.379Z,19.60
2018-07-19T03:53:37.669Z,19.30
2018-07-19T04:03:50.936Z,19.60
2018-07-19T04:08:54.210Z,19.60
2018-07-19T04:13:57.468Z,19.40
2018-07-19T04:19:00.729Z,19.50
2018-07-19T04:24:04.008Z,19.70
2018-07-19T04:29:07.271Z,19.80
2018-07-19T04:34:10.530Z,19.80
2018-07-19T04:39:20.443Z,20.10
2018-07-19T04:44:23.828Z,20.40
2018-07-19T04:49:29.367Z,20.80
2018-07-19T04:54:32.891Z,20.90
2018-07-19T04:59:36.104Z,21.10
2018-07-19T05:04:39.487Z,21.60
2018-07-19T05:09:43.098Z,21.60
2018-07-19T05:14:46.411Z,21.80
2018-07-19T05:19:49.759Z,22.00
2018-07-19T05:24:53.266Z,22.40
2018-07-19T05:29:56.528Z,22.40
2018-07-19T05:34:59.798Z,22.70
2018-07-19T05:40:03.095Z,23.20
2018-07-19T05:45:06.358Z,23.20
2018-07-19T05:50:09.615Z,23.60
2018-07-19T05:55:13.011Z,23.10
2018-07-19T06:00:16.343Z,22.70
2018-07-19T06:10:53.820Z,23.90
2018-07-19T06:15:57.177Z,24.40
2018-07-19T06:21:00.469Z,24.80
2018-07-19T06:26:03.762Z,24.90
2018-07-19T06:31:07.054Z,24.00
2018-07-19T06:36:10.298Z,24.20
2018-07-19T06:41:13.633Z,23.20
2018-07-19T06:46:16.839Z,23.90
2018-07-19T06:51:20.102Z,24.70
2018-07-19T06:56:23.402Z,24.30
2018-07-19T07:01:26.710Z,24.00
2018-07-19T07:06:29.970Z,23.00
2018-07-19T07:11:33.206Z,22.60
2018-07-19T07:16:36.537Z,22.50
2018-07-19T07:21:39.792Z,22.70
2018-07-19T07:26:43.259Z,22.90
2018-07-19T07:31:46.523Z,24.10
2018-07-19T07:36:49.909Z,24.80
2018-07-19T07:41:53.213Z,24.80
2018-07-19T07:46:56.482Z,24.70
2018-07-19T07:51:59.883Z,24.30
2018-07-19T07:57:03.166Z,24.30
2018-07-19T08:02:06.539Z,24.90
2018-07-19T08:07:09.811Z,24.30
2018-07-19T08:12:13.108Z,24.60
2018-07-19T08:17:16.363Z,25.20
2018-07-19T08:22:19.811Z,24.60
2018-07-19T08:27:23.087Z,24.50
2018-07-19T08:32:26.422Z,25.00
2018-07-19T08:37:29.677Z,25.70
2018-07-19T08:42:33.030Z,25.10
2018-07-19T08:47:36.280Z,24.90
2018-07-19T08:52:39.539Z,26.30
2018-07-19T08:57:42.797Z,27.00
2018-07-19T09:02:46.089Z,26.20
2018-07-19T09:07:49.344Z,27.10
2018-07-19T09:12:52.636Z,27.50
2018-07-19T09:17:55.931Z,27.60
2018-07-19T09:22:59.203Z,28.00
2018-07-19T09:28:02.474Z,28.00
2018-07-19T09:33:06.600Z,28.40
2018-07-19T09:38:09.855Z,26.40
2018-07-19T09:43:13.167Z,28.00
2018-07-19T09:48:16.423Z,28.60
2018-07-19T09:53:19.668Z,30.30
2018-07-19T09:58:22.935Z,28.40
2018-07-19T10:03:26.248Z,28.10
2018-07-19T10:08:29.516Z,27.80
2018-07-19T10:13:32.827Z,27.30
2018-07-19T10:18:36.061Z,27.10
2018-07-19T10:23:39.379Z,28.60
2018-07-19T10:28:42.723Z,29.10
2018-07-19T10:33:45.964Z,28.30
2018-07-19T10:38:49.231Z,28.60
2018-07-19T10:43:52.552Z,27.80
2018-07-19T10:48:55.840Z,27.60
2018-07-19T10:53:59.223Z,27.20
2018-07-19T10:59:02.554Z,27.30
2018-07-19T11:04:05.998Z,27.20
2018-07-19T11:09:09.937Z,27.10
2018-07-19T11:14:13.349Z,27.30
2018-07-19T11:19:16.729Z,28.40
2018-07-19T11:24:20.012Z,27.20
2018-07-19T11:29:23.331Z,27.20
2018-07-19T11:34:26.613Z,27.50
2018-07-19T11:39:29.912Z,27.10
2018-07-19T11:44:33.135Z,26.90
2018-07-19T11:49:36.410Z,28.00
2018-07-19T11:54:39.655Z,28.40
2018-07-19T11:59:42.930Z,27.90
2018-07-19T12:04:46.232Z,28.10
2018-07-19T12:09:49.478Z,28.70
2018-07-19T12:14:52.734Z,28.60
2018-07-19T12:19:55.983Z,31.40
2018-07-19T12:24:59.267Z,29.70
2018-07-19T12:30:02.547Z,32.00
2018-07-19T12:35:05.884Z,32.30
2018-07-19T12:40:09.151Z,31.20
2018-07-19T12:45:12.410Z,33.10
2018-07-19T12:50:15.902Z,29.80
2018-07-19T12:55:19.172Z,30.10
2018-07-19T13:00:22.712Z,29.40
2018-07-19T13:05:26.008Z,29.90
2018-07-19T13:10:29.279Z,29.60
2018-07-19T13:15:33.460Z,29.80
2018-07-19T13:20:36.843Z,31.30
2018-07-19T13:25:40.091Z,30.20
2018-07-19T13:30:43.359Z,31.00
2018-07-19T13:35:46.602Z,29.70
2018-07-19T13:40:50.716Z,29.60
2018-07-19T13:45:53.970Z,32.60
2018-07-19T13:50:57.375Z,33.50
2018-07-19T13:56:00.673Z,33.70
2018-07-19T14:01:04.149Z,31.20
2018-07-19T14:06:07.476Z,30.50
2018-07-19T14:11:10.911Z,29.70
2018-07-19T14:16:14.471Z,30.50
2018-07-19T14:21:17.714Z,29.50
2018-07-19T14:26:20.974Z,29.70
2018-07-19T14:31:24.242Z,30.40
2018-07-19T14:36:27.526Z,30.10
2018-07-19T14:41:30.801Z,31.00
2018-07-19T14:46:34.379Z,29.30
2018-07-19T14:51:37.751Z,29.20
2018-07-19T14:56:41.065Z,29.20
2018-07-19T15:01:44.373Z,28.70
2018-07-19T15:06:47.623Z,28.30
2018-07-19T15:11:51.057Z,28.50
2018-07-19T15:16:54.312Z,28.40
2018-07-19T15:21:57.567Z,28.30
2018-07-19T15:27:00.847Z,28.20
2018-07-19T15:32:04.250Z,28.60
2018-07-19T15:37:07.514Z,28.20
2018-07-19T15:42:11.078Z,29.10
2018-07-19T15:47:14.441Z,28.40
2018-07-19T15:52:17.688Z,28.30
2018-07-19T15:57:21.067Z,28.20
2018-07-19T16:02:24.317Z,28.70
2018-07-19T16:07:27.623Z,28.50
2018-07-19T16:12:30.963Z,28.60
2018-07-19T16:17:34.266Z,29.00
2018-07-19T16:22:37.649Z,28.70
2018-07-19T16:27:40.891Z,28.00
2018-07-19T16:32:44.213Z,28.20
2018-07-19T16:37:47.543Z,28.50
2018-07-19T16:42:50.967Z,28.30
2018-07-19T16:47:54.190Z,27.90
2018-07-19T16:52:57.527Z,28.10
2018-07-19T16:58:00.823Z,27.90
2018-07-19T17:03:04.285Z,28.00
2018-07-19T17:08:07.587Z,28.10
2018-07-19T17:13:11.171Z,27.70
2018-07-19T17:18:14.476Z,27.90
2018-07-19T17:23:17.811Z,27.80
2018-07-19T17:28:21.068Z,27.70
2018-07-19T17:33:24.479Z,28.10
2018-07-19T17:38:27.713Z,28.10
2018-07-19T17:43:30.986Z,28.00
2018-07-19T17:53:37.659Z,27.80
2018-07-19T17:58:40.994Z,27.60
2018-07-19T18:03:44.400Z,27.40
2018-07-19T18:08:47.771Z,27.40
2018-07-19T18:13:51.277Z,27.20
2018-07-19T18:18:54.551Z,27.20
2018-07-19T18:23:57.828Z,27.20
2018-07-19T18:29:01.280Z,27.10
2018-07-19T18:34:04.695Z,27.00
2018-07-19T18:39:09.929Z,27.20
2018-07-19T18:44:13.295Z,27.00
2018-07-19T18:49:16.712Z,26.70
2018-07-19T18:54:19.965Z,26.50
2018-07-19T18:59:23.238Z,26.40
2018-07-19T19:04:26.524Z,26.20
2018-07-19T19:09:29.808Z,26.10
2018-07-19T19:14:33.243Z,25.80
2018-07-19T19:19:36.538Z,25.80
2018-07-19T19:24:39.926Z,25.80
2018-07-19T19:29:43.178Z,25.70
2018-07-19T19:34:46.484Z,25.50
2018-07-19T19:39:49.993Z,25.40
2018-07-19T19:44:53.334Z,25.20
2018-07-19T19:49:56.616Z,25.10
2018-07-19T19:54:59.874Z,25.20
2018-07-19T20:00:03.368Z,25.10
2018-07-19T20:05:06.630Z,25.00
2018-07-19T20:10:09.942Z,24.80
2018-07-19T20:15:13.497Z,24.90
2018-07-19T20:20:17.048Z,24.60
2018-07-19T20:25:20.542Z,24.60
2018-07-19T20:35:26.823Z,24.40
2018-07-19T20:40:30.234Z,24.50
2018-07-19T20:45:33.502Z,24.10
2018-07-19T20:50:36.794Z,23.90
2018-07-19T20:55:40.034Z,23.60
2018-07-19T21:00:43.286Z,23.50
2018-07-19T21:05:46.640Z,23.40
2018-07-19T21:10:49.906Z,23.30
2018-07-19T21:15:53.159Z,23.10
2018-07-19T21:20:56.419Z,23.00
2018-07-19T21:25:59.651Z,23.00
2018-07-19T21:31:02.933Z,23.00
2018-07-19T21:41:09.202Z,23.20
2018-07-19T21:46:12.455Z,23.20
2018-07-19T21:51:15.707Z,23.20
2018-07-19T21:56:18.946Z,23.00
2018-07-19T22:01:22.364Z,22.90
2018-07-19T22:06:25.776Z,22.90
2018-07-19T22:11:29.062Z,22.50
2018-07-19T22:16:32.431Z,22.60
2018-07-19T22:21:35.818Z,22.90
2018-07-19T22:26:39.416Z,23.00
2018-07-19T22:31:42.684Z,22.80
2018-07-19T22:36:45.971Z,22.80
2018-07-19T22:41:49.215Z,22.80
2018-07-19T22:46:52.479Z,22.70
2018-07-19T22:51:55.888Z,22.50
2018-07-19T22:56:59.122Z,22.60
2018-07-19T23:02:02.427Z,22.60
2018-07-19T23:07:05.775Z,22.40
2018-07-19T23:12:09.181Z,22.60
2018-07-19T23:17:12.450Z,22.70
2018-07-19T23:22:15.703Z,22.40
2018-07-19T23:27:18.960Z,22.40
2018-07-19T23:32:22.242Z,22.40
2018-07-19T23:37:30.795Z,22.50
2018-07-19T23:42:37.143Z,22.40
2018-07-19T23:47:41.601Z,22.40
2018-07-19T23:52:44.859Z,22.30
2018-07-19T23:57:48.122Z,22.50
